createdAt,value
2018-01-10T00:01:00.844Z,55.63
2018-01-10T00:03:28.859Z,60.27
2018-01-10T01:27:55.188Z,55.90
2018-01-10T01:30:23.524Z,57.33
2018-01-10T01:32:51.582Z,62.30
2018-01-10T01:35:20.013Z,61.47
2018-01-10T01:37:47.992Z,57.13
2018-01-10T01:40:16.464Z,53.10
2018-01-10T01:42:44.619Z,59.73
2018-01-10T01:45:12.743Z,59.03
2018-01-10T01:47:40.863Z,63.20
2018-01-10T01:50:09.132Z,61.57
2018-01-10T01:52:37.569Z,77.13
2018-01-10T01:55:05.988Z,82.57
2018-01-10T01:57:34.220Z,73.27
2018-01-10T02:00:02.386Z,72.00
2018-01-10T02:02:30.786Z,69.93
2018-01-10T02:04:59.001Z,69.80
2018-01-10T02:07:26.927Z,68.17
2018-01-10T02:09:54.823Z,63.17
2018-01-10T02:12:22.735Z,72.80
2018-01-10T02:14:50.639Z,71.93
2018-01-10T02:17:18.572Z,71.67
2018-01-10T02:19:46.513Z,73.47
2018-01-10T02:22:14.394Z,78.47
2018-01-10T02:24:42.288Z,89.23
2018-01-10T02:27:10.210Z,77.40
2018-01-10T02:29:38.111Z,75.37
2018-01-10T02:32:06.027Z,73.47
2018-01-10T02:34:33.948Z,85.80
2018-01-10T02:37:01.831Z,83.30
2018-01-10T02:39:29.731Z,76.77
2018-01-10T02:41:57.651Z,76.73
2018-01-10T02:44:25.587Z,87.83
2018-01-10T02:46:53.515Z,82.23
2018-01-10T02:49:21.412Z,76.43
2018-01-10T02:51:49.302Z,75.87
2018-01-10T02:54:17.666Z,88.90
2018-01-10T02:56:45.607Z,87.73
2018-01-10T02:59:13.467Z,84.47
2018-01-10T03:01:41.370Z,84.00
2018-01-10T03:04:09.380Z,79.83
2018-01-10T03:06:37.708Z,106.63
2018-01-10T03:09:05.624Z,89.40
2018-01-10T03:11:33.545Z,113.67
2018-01-10T03:14:01.440Z,100.00
2018-01-10T03:16:29.334Z,102.83
2018-01-10T03:18:57.339Z,95.37
2018-01-10T03:21:25.285Z,98.70
2018-01-10T03:23:53.159Z,96.20
2018-01-10T03:26:21.124Z,112.93
2018-01-10T03:28:49.008Z,104.53
2018-01-10T03:31:16.931Z,102.73
2018-01-10T03:33:44.902Z,100.50
2018-01-10T03:36:12.900Z,83.23
2018-01-10T03:38:40.800Z,94.23
2018-01-10T03:41:08.705Z,112.60
2018-01-10T03:43:36.595Z,93.87
2018-01-10T03:46:04.457Z,98.63
2018-01-10T03:48:32.400Z,129.27
2018-01-10T03:51:00.268Z,104.20
2018-01-10T03:53:28.140Z,100.13
2018-01-10T03:55:56.078Z,107.80
2018-01-10T03:58:23.955Z,103.70
2018-01-10T04:00:51.818Z,113.37
2018-01-10T04:03:19.767Z,104.13
2018-01-10T04:05:47.676Z,111.60
2018-01-10T04:08:15.537Z,108.87
2018-01-10T04:10:43.661Z,116.03
2018-01-10T04:13:11.581Z,137.03
2018-01-10T04:15:39.495Z,113.33
2018-01-10T04:18:07.482Z,103.43
2018-01-10T04:20:35.395Z,114.70
2018-01-10T04:23:03.304Z,113.63
2018-01-10T04:25:31.326Z,173.10
2018-01-10T04:27:59.256Z,157.57
2018-01-10T04:30:27.152Z,102.60
2018-01-10T04:32:55.088Z,105.07
2018-01-10T04:35:22.995Z,121.50
2018-01-10T04:37:51.061Z,156.97
2018-01-10T04:40:18.969Z,157.63
2018-01-10T04:42:46.864Z,129.50
2018-01-10T04:45:14.775Z,212.80
2018-01-10T04:47:42.668Z,124.97
2018-01-10T04:50:10.596Z,147.70
2018-01-10T04:52:38.563Z,139.87
2018-01-10T04:55:06.463Z,133.60
2018-01-10T04:57:34.352Z,178.27
2018-01-10T05:00:02.248Z,261.10
2018-01-10T05:02:30.181Z,220.80
2018-01-10T05:04:58.101Z,195.93
2018-01-10T05:07:25.968Z,217.07
2018-01-10T05:09:53.836Z,162.87
2018-01-10T05:12:21.701Z,220.50
2018-01-10T05:14:49.597Z,163.50
2018-01-10T05:17:17.477Z,220.90
2018-01-10T05:19:45.364Z,185.00
2018-01-10T05:22:14.816Z,193.63
2018-01-10T05:24:42.735Z,276.07
2018-01-10T05:27:10.605Z,242.67
2018-01-10T05:29:39.644Z,262.40
2018-01-10T05:32:07.540Z,239.90
2018-01-10T05:34:35.434Z,326.50
2018-01-10T05:37:03.515Z,216.57
2018-01-10T05:39:31.492Z,216.47
2018-01-10T05:41:59.371Z,322.43
2018-01-10T05:44:27.267Z,304.53
2018-01-10T05:46:55.149Z,307.60
2018-01-10T05:49:23.008Z,334.43
2018-01-10T05:51:50.915Z,213.87
2018-01-10T05:54:18.791Z,307.70
2018-01-10T05:56:46.671Z,357.30
2018-01-10T05:59:14.555Z,349.03
2018-01-10T06:01:42.460Z,292.50
2018-01-10T06:04:11.247Z,346.00
2018-01-10T06:06:39.144Z,296.63
2018-01-10T06:09:07.072Z,320.30
2018-01-10T06:11:34.940Z,349.17
2018-01-10T06:14:02.805Z,250.73
2018-01-10T06:16:30.714Z,305.57
2018-01-10T06:18:58.575Z,288.30
2018-01-10T06:21:26.467Z,287.57
2018-01-10T06:23:54.381Z,367.73
2018-01-10T06:26:22.326Z,341.00
2018-01-10T06:28:50.188Z,278.37
2018-01-10T06:31:18.080Z,337.93
2018-01-10T06:33:45.924Z,202.50
2018-01-10T06:36:13.812Z,228.93
2018-01-10T06:38:41.813Z,225.20
2018-01-10T06:41:09.669Z,255.73
2018-01-10T06:43:37.520Z,189.90
2018-01-10T06:46:05.415Z,270.83
2018-01-10T06:48:33.298Z,191.50
2018-01-10T06:51:01.165Z,200.43
2018-01-10T06:53:29.071Z,196.63
2018-01-10T06:55:56.963Z,165.53
2018-01-10T06:58:24.821Z,230.87
2018-01-10T07:00:52.723Z,200.57
2018-01-10T07:03:20.585Z,137.93
2018-01-10T07:05:48.434Z,157.57
2018-01-10T07:08:16.321Z,191.03
2018-01-10T07:10:44.171Z,164.43
2018-01-10T07:13:12.052Z,148.30
2018-01-10T07:15:40.011Z,146.03
2018-01-10T07:18:07.920Z,133.83
2018-01-10T07:20:35.799Z,126.77
2018-01-10T07:23:03.728Z,143.50
2018-01-10T07:25:31.694Z,217.30
2018-01-10T07:27:59.563Z,146.43
2018-01-10T07:30:27.502Z,138.17
2018-01-10T07:32:55.360Z,116.03
2018-01-10T07:35:23.208Z,156.20
2018-01-10T07:37:51.208Z,176.23
2018-01-10T07:40:19.069Z,222.87
2018-01-10T07:42:46.925Z,191.23
2018-01-10T07:45:14.839Z,213.97
2018-01-10T07:47:42.783Z,143.60
2018-01-10T07:50:10.745Z,123.33
2018-01-10T07:52:38.656Z,137.53
2018-01-10T07:55:06.599Z,127.70
2018-01-10T07:57:34.700Z,149.30
2018-01-10T08:00:02.582Z,125.57
2018-01-10T08:02:30.437Z,121.47
2018-01-10T08:04:58.416Z,170.70
2018-01-10T08:07:26.327Z,169.87
2018-01-10T08:09:54.208Z,147.43
2018-01-10T08:12:22.072Z,162.43
2018-01-10T08:14:49.976Z,147.67
2018-01-10T08:17:17.835Z,126.80
2018-01-10T08:19:45.747Z,154.43
2018-01-10T08:22:13.669Z,156.67
2018-01-10T08:24:41.536Z,150.93
2018-01-10T08:27:09.403Z,167.30
2018-01-10T08:29:37.309Z,161.30
2018-01-10T08:32:05.200Z,142.30
2018-01-10T08:34:33.191Z,151.57
2018-01-10T08:37:01.077Z,151.43
2018-01-10T08:39:32.922Z,168.53
2018-01-10T08:42:00.880Z,169.37
2018-01-10T08:44:28.876Z,184.17
2018-01-10T08:46:56.786Z,164.30
2018-01-10T08:49:24.620Z,177.47
2018-01-10T08:51:52.471Z,131.83
2018-01-10T08:54:20.384Z,178.00
2018-01-10T08:56:48.242Z,200.30
2018-01-10T08:59:16.115Z,143.77
2018-01-10T09:01:43.984Z,218.43
2018-01-10T09:04:11.855Z,179.77
2018-01-10T09:06:39.717Z,215.73
2018-01-10T09:09:07.644Z,138.43
2018-01-10T09:11:36.980Z,196.00
2018-01-10T09:14:04.926Z,142.73
2018-01-10T09:16:32.780Z,157.93
2018-01-10T09:19:00.625Z,126.67
2018-01-10T09:21:28.520Z,209.43
2018-01-10T09:23:56.387Z,170.40
2018-01-10T09:26:24.256Z,133.87
2018-01-10T09:28:53.347Z,116.57
2018-01-10T09:31:21.219Z,126.40
2018-01-10T09:33:49.176Z,152.67
2018-01-10T09:36:17.023Z,137.47
2018-01-10T09:38:44.893Z,174.63
2018-01-10T09:41:12.764Z,110.40
2018-01-10T09:43:40.633Z,198.10
2018-01-10T09:46:09.152Z,128.20
2018-01-10T09:48:37.936Z,103.67
2018-01-10T09:51:06.830Z,126.80
2018-01-10T09:53:36.265Z,248.43
2018-01-10T09:56:05.060Z,104.10
2018-01-10T09:58:33.312Z,202.23
2018-01-10T10:01:01.362Z,140.33
2018-01-10T10:03:29.620Z,89.87
2018-01-10T10:05:57.715Z,245.77
2018-01-10T10:08:25.844Z,157.63
2018-01-10T10:10:54.204Z,179.37
2018-01-10T10:13:22.328Z,84.90
2018-01-10T10:15:51.963Z,118.47
2018-01-10T10:18:19.933Z,82.73
2018-01-10T10:20:48.454Z,130.77
2018-01-10T10:23:16.481Z,80.60
2018-01-10T10:25:44.623Z,96.13
2018-01-10T10:28:12.742Z,87.00
2018-01-10T10:30:40.970Z,92.70
2018-01-10T10:33:09.313Z,72.07
2018-01-10T10:35:38.427Z,79.80
2018-01-10T10:38:09.696Z,76.53
2018-01-10T10:40:37.908Z,77.47
2018-01-10T10:43:05.958Z,76.20
2018-01-10T10:45:33.880Z,77.83
2018-01-10T10:48:01.716Z,80.90
2018-01-10T10:50:29.581Z,78.97
2018-01-10T10:52:57.498Z,89.17
2018-01-10T10:55:25.359Z,78.17
2018-01-10T10:57:53.262Z,82.00
2018-01-10T11:00:21.419Z,91.07
2018-01-10T11:02:49.267Z,81.63
2018-01-10T11:05:17.137Z,100.30
2018-01-10T11:07:45.028Z,112.83
2018-01-10T11:10:12.888Z,124.57
2018-01-10T11:12:40.810Z,149.20
2018-01-10T11:15:08.902Z,164.50
2018-01-10T11:17:36.780Z,100.67
2018-01-10T11:20:04.664Z,124.23
2018-01-10T11:22:32.526Z,128.10
2018-01-10T11:25:00.394Z,102.20
2018-01-10T11:27:28.285Z,99.37
2018-01-10T11:29:56.131Z,85.40
2018-01-10T11:32:23.993Z,98.20
2018-01-10T11:34:51.868Z,110.87
2018-01-10T11:37:19.724Z,115.17
2018-01-10T11:39:47.631Z,106.30
2018-01-10T11:42:15.505Z,98.17
2018-01-10T11:44:43.416Z,77.37
2018-01-10T11:47:11.285Z,83.00
2018-01-10T11:49:39.165Z,82.43
2018-01-10T11:52:07.033Z,82.67
2018-01-10T11:54:34.929Z,103.83
2018-01-10T11:57:02.826Z,83.83
2018-01-10T11:59:30.677Z,102.27
2018-01-10T12:01:58.553Z,90.37
2018-01-10T12:04:26.456Z,116.97
2018-01-10T12:06:54.309Z,119.70
2018-01-10T12:09:22.209Z,116.27
2018-01-10T12:11:50.127Z,98.97
2018-01-10T12:14:18.095Z,111.80
2018-01-10T12:16:46.028Z,109.67
2018-01-10T12:19:14.040Z,125.00
2018-01-10T12:21:41.928Z,112.40
2018-01-10T12:24:09.841Z,112.73
2018-01-10T12:26:37.732Z,137.40
2018-01-10T12:29:05.601Z,131.43
2018-01-10T12:31:33.457Z,102.73
2018-01-10T12:34:01.393Z,121.10
2018-01-10T12:36:29.272Z,105.40
2018-01-10T12:38:57.122Z,170.17
2018-01-10T12:41:25.007Z,239.40
2018-01-10T12:43:52.866Z,159.60
2018-01-10T12:46:20.788Z,141.73
2018-01-10T12:48:48.665Z,132.10
2018-01-10T12:51:16.537Z,114.13
2018-01-10T12:53:44.385Z,165.67
2018-01-10T12:56:12.306Z,115.97
2018-01-10T12:58:40.239Z,121.70
2018-01-10T13:01:13.593Z,107.53
2018-01-10T13:03:41.492Z,108.00
2018-01-10T13:06:09.395Z,236.03
2018-01-10T13:08:37.326Z,172.27
2018-01-10T13:11:05.283Z,117.13
2018-01-10T13:13:33.150Z,95.33
2018-01-10T13:16:01.017Z,99.87
2018-01-10T13:18:28.848Z,97.23
2018-01-10T13:20:56.688Z,97.67
2018-01-10T13:23:24.578Z,84.63
2018-01-10T13:25:52.439Z,107.20
2018-01-10T13:28:20.320Z,125.23
2018-01-10T13:30:48.181Z,92.47
2018-01-10T13:33:16.084Z,120.77
2018-01-10T13:35:43.967Z,103.43
2018-01-10T13:38:11.916Z,96.03
2018-01-10T13:40:39.893Z,94.13
2018-01-10T13:43:07.788Z,114.90
2018-01-10T13:45:35.732Z,92.53
2018-01-10T13:48:03.649Z,121.30
2018-01-10T13:50:31.504Z,145.87
2018-01-10T13:52:59.397Z,102.57
2018-01-10T13:55:27.271Z,120.20
2018-01-10T13:57:55.471Z,175.27
2018-01-10T14:00:23.334Z,120.43
2018-01-10T14:02:51.212Z,146.50
2018-01-10T14:05:19.144Z,108.73
2018-01-10T14:07:47.022Z,155.67
2018-01-10T14:10:14.870Z,135.23
2018-01-10T14:12:42.762Z,213.23
2018-01-10T14:15:10.622Z,146.80
2018-01-10T14:17:38.575Z,83.73
2018-01-10T14:20:06.442Z,139.87
2018-01-10T14:22:34.479Z,133.03
2018-01-10T14:25:02.373Z,127.57
2018-01-10T14:27:30.240Z,151.30
2018-01-10T14:29:58.284Z,159.83
2018-01-10T14:32:26.129Z,116.53
2018-01-10T14:34:53.981Z,390.03
2018-01-10T14:37:21.864Z,179.63
2018-01-10T14:39:49.727Z,129.07
2018-01-10T14:42:17.567Z,119.10
2018-01-10T14:44:45.455Z,279.83
2018-01-10T14:47:13.326Z,144.07
2018-01-10T14:49:41.227Z,130.40
2018-01-10T14:52:09.104Z,140.77
2018-01-10T14:54:36.992Z,133.83
2018-01-10T14:57:04.941Z,155.70
2018-01-10T14:59:33.493Z,241.30
2018-01-10T15:02:01.362Z,156.87
2018-01-10T15:04:29.238Z,169.20
2018-01-10T15:06:57.130Z,171.63
2018-01-10T15:09:24.978Z,135.20
2018-01-10T15:11:52.849Z,246.67
2018-01-10T15:14:20.839Z,174.20
2018-01-10T15:16:48.684Z,141.10
2018-01-10T15:19:16.534Z,141.20
2018-01-10T15:21:44.496Z,139.07
2018-01-10T15:24:12.403Z,221.70
2018-01-10T15:26:40.289Z,209.80
2018-01-10T15:29:08.179Z,155.70
2018-01-10T15:31:36.092Z,290.10
2018-01-10T15:34:03.956Z,158.87
2018-01-10T15:36:31.840Z,213.30
2018-01-10T15:38:59.712Z,160.57
2018-01-10T15:41:27.590Z,119.07
2018-01-10T15:43:55.468Z,339.47
2018-01-10T15:46:23.304Z,142.63
2018-01-10T15:48:51.174Z,155.80
2018-01-10T15:51:19.084Z,196.30
2018-01-10T15:53:46.948Z,140.07
2018-01-10T15:56:15.165Z,228.97
2018-01-10T15:58:43.068Z,157.03
2018-01-10T16:01:10.925Z,144.23
2018-01-10T16:03:38.812Z,183.83
2018-01-10T16:06:06.686Z,126.83
2018-01-10T16:08:34.547Z,163.30
2018-01-10T16:11:02.395Z,205.47
2018-01-10T16:13:30.282Z,145.03
2018-01-10T16:15:58.148Z,218.93
2018-01-10T16:18:26.016Z,251.10
2018-01-10T16:20:53.895Z,147.53
2018-01-10T16:23:21.755Z,239.60
2018-01-10T16:25:49.605Z,192.10
2018-01-10T16:28:17.480Z,234.23
2018-01-10T16:30:45.338Z,169.17
2018-01-10T16:33:13.230Z,163.73
2018-01-10T16:35:41.285Z,277.17
2018-01-10T16:38:09.680Z,148.17
2018-01-10T16:40:37.608Z,291.77
2018-01-10T16:43:05.602Z,188.63
2018-01-10T16:45:33.477Z,156.30
2018-01-10T16:48:01.366Z,166.50
2018-01-10T16:50:29.381Z,227.60
2018-01-10T16:52:57.315Z,152.17
2018-01-10T16:55:25.176Z,153.10
2018-01-10T16:57:53.057Z,128.27
2018-01-10T17:00:20.936Z,157.83
2018-01-10T17:02:48.812Z,133.73
2018-01-10T17:05:16.685Z,180.63
2018-01-10T17:07:44.549Z,207.97
2018-01-10T17:10:12.395Z,160.10
2018-01-10T17:12:40.502Z,138.37
2018-01-10T17:15:08.431Z,144.37
2018-01-10T17:17:36.430Z,130.83
2018-01-10T17:20:04.422Z,113.80
2018-01-10T17:22:32.276Z,127.83
2018-01-10T17:25:00.160Z,128.33
2018-01-10T17:27:28.154Z,137.63
2018-01-10T17:29:56.060Z,158.37
2018-01-10T17:32:23.969Z,156.17
2018-01-10T17:34:51.855Z,122.03
2018-01-10T17:37:19.792Z,125.50
2018-01-10T17:39:47.724Z,109.97
2018-01-10T17:42:15.598Z,145.57
2018-01-10T17:44:43.720Z,148.80
2018-01-10T17:47:11.573Z,171.63
2018-01-10T17:49:39.642Z,161.87
2018-01-10T17:52:07.581Z,173.83
2018-01-10T17:54:35.563Z,195.33
2018-01-10T17:57:03.455Z,177.33
2018-01-10T17:59:31.354Z,206.23
2018-01-10T18:01:59.243Z,358.40
2018-01-10T18:04:27.136Z,275.70
2018-01-10T18:06:55.001Z,263.30
2018-01-10T18:09:22.865Z,211.73
2018-01-10T18:11:50.802Z,302.10
2018-01-10T18:14:19.013Z,259.53
2018-01-10T18:16:46.860Z,251.43
2018-01-10T18:19:14.760Z,242.27
2018-01-10T18:21:42.820Z,240.30
2018-01-10T18:24:10.773Z,327.13
2018-01-10T18:26:39.136Z,182.13
2018-01-10T18:29:07.120Z,147.60
2018-01-10T18:31:35.037Z,156.43
2018-01-10T18:34:02.918Z,282.30
2018-01-10T18:36:30.769Z,229.37
2018-01-10T18:38:58.662Z,240.63
2018-01-10T18:41:26.523Z,219.57
2018-01-10T18:43:54.465Z,212.00
2018-01-10T18:46:22.425Z,182.03
2018-01-10T18:48:50.314Z,186.83
2018-01-10T18:51:18.503Z,167.47
2018-01-10T18:53:46.923Z,176.37
2018-01-10T18:56:15.287Z,206.07
2018-01-10T18:58:43.202Z,189.67
2018-01-10T19:01:11.136Z,245.80
2018-01-10T19:03:39.026Z,174.17
2018-01-10T19:06:07.519Z,250.17
2018-01-10T19:08:35.481Z,197.10
2018-01-10T19:11:03.371Z,156.30
2018-01-10T19:13:31.329Z,182.90
2018-01-10T19:15:59.205Z,247.47
2018-01-10T19:18:27.055Z,218.13
2018-01-10T19:20:56.032Z,224.10
2018-01-10T19:23:23.979Z,183.50
2018-01-10T19:25:51.821Z,194.63
2018-01-10T19:28:19.734Z,208.30
2018-01-10T19:30:47.591Z,143.57
2018-01-10T19:33:15.508Z,565.10
2018-01-10T19:35:43.410Z,233.50
2018-01-10T19:38:11.298Z,186.80
2018-01-10T19:40:39.665Z,230.77
2018-01-10T19:43:07.668Z,160.13
2018-01-10T19:45:35.713Z,208.90
2018-01-10T19:48:03.921Z,172.80
2018-01-10T19:50:32.045Z,195.23
2018-01-10T19:52:59.933Z,174.13
2018-01-10T19:55:27.789Z,211.73
2018-01-10T19:57:55.690Z,237.33
2018-01-10T20:00:23.577Z,240.43
2018-01-10T20:02:51.448Z,274.27
2018-01-10T20:05:19.384Z,264.83
2018-01-10T20:07:47.324Z,244.97
2018-01-10T20:10:15.208Z,187.83
2018-01-10T20:12:43.241Z,190.27
2018-01-10T20:15:11.141Z,179.00
2018-01-10T20:17:39.061Z,210.40
2018-01-10T20:20:07.033Z,192.00
2018-01-10T20:22:34.943Z,179.37
2018-01-10T20:25:02.884Z,241.53
2018-01-10T20:27:30.776Z,190.13
2018-01-10T20:29:58.673Z,205.13
2018-01-10T20:32:26.561Z,197.67
2018-01-10T20:34:56.478Z,173.63
2018-01-10T20:37:24.367Z,173.93
2018-01-10T20:39:52.942Z,179.30
2018-01-10T20:42:21.033Z,222.33
2018-01-10T20:44:49.012Z,202.07
2018-01-10T20:47:16.944Z,214.67
2018-01-10T20:49:44.864Z,202.13
2018-01-10T20:52:12.783Z,239.47
2018-01-10T20:54:41.919Z,215.10
2018-01-10T20:57:09.925Z,234.50
2018-01-10T20:59:38.050Z,181.77
2018-01-10T21:02:07.004Z,209.27
2018-01-10T21:04:36.297Z,196.90
2018-01-10T21:07:04.256Z,213.83
2018-01-10T21:09:32.220Z,193.40
2018-01-10T21:12:00.399Z,171.90
2018-01-10T21:14:28.315Z,168.73
2018-01-10T21:16:56.431Z,188.63
2018-01-10T21:19:24.350Z,208.33
2018-01-10T21:21:53.796Z,165.90
2018-01-10T21:24:21.632Z,203.97
2018-01-10T21:26:49.497Z,188.33
2018-01-10T21:29:17.413Z,185.03
2018-01-10T21:31:45.297Z,261.20
2018-01-10T21:34:13.512Z,288.77
2018-01-10T21:36:42.517Z,237.63
2018-01-10T21:39:10.592Z,301.20
2018-01-10T21:41:38.797Z,438.63
2018-01-10T21:44:06.715Z,289.77
2018-01-10T21:46:34.603Z,436.17
2018-01-10T21:49:03.636Z,434.43
2018-01-10T21:51:31.522Z,361.20
2018-01-10T21:54:00.472Z,336.00
2018-01-10T21:56:28.562Z,441.27
2018-01-10T21:58:56.864Z,381.70
2018-01-10T22:01:24.851Z,411.33
2018-01-10T22:03:52.764Z,458.37
2018-01-10T22:06:20.678Z,380.53
2018-01-10T22:08:48.597Z,486.50
2018-01-10T22:11:16.592Z,418.50
2018-01-10T22:13:44.577Z,472.07
2018-01-10T22:16:12.496Z,485.63
2018-01-10T22:18:40.493Z,301.67
2018-01-10T22:21:08.661Z,374.83
2018-01-10T22:23:36.653Z,387.60
2018-01-10T22:26:04.786Z,471.43
2018-01-10T22:28:32.757Z,280.10
2018-01-10T22:31:00.891Z,406.03
2018-01-10T22:33:28.802Z,305.40
2018-01-10T22:35:56.810Z,383.53
2018-01-10T22:38:24.691Z,214.73
2018-01-10T22:40:52.638Z,205.83
2018-01-10T22:43:20.900Z,437.03
2018-01-10T22:45:49.791Z,200.93
2018-01-10T22:48:17.644Z,232.87
2018-01-10T22:50:45.682Z,197.20
2018-01-10T22:53:13.835Z,225.83
2018-01-10T22:55:41.886Z,186.80
2018-01-10T22:58:09.931Z,201.70
2018-01-10T23:00:38.413Z,244.63
2018-01-10T23:03:06.605Z,196.07
2018-01-10T23:05:35.164Z,221.07
2018-01-10T23:08:03.362Z,164.27
2018-01-10T23:10:31.225Z,168.03
2018-01-10T23:12:59.247Z,175.07
2018-01-10T23:15:27.229Z,209.97
2018-01-10T23:17:55.234Z,419.63
2018-01-10T23:20:24.054Z,271.57
2018-01-10T23:22:52.232Z,323.40
2018-01-10T23:25:21.665Z,336.27
2018-01-10T23:27:49.528Z,304.70
2018-01-10T23:30:17.403Z,371.67
2018-01-10T23:32:45.485Z,328.23
2018-01-10T23:35:13.341Z,460.33
2018-01-10T23:37:41.543Z,267.03
2018-01-10T23:40:09.519Z,227.53
2018-01-10T23:42:37.388Z,265.73
2018-01-10T23:45:05.304Z,215.00
2018-01-10T23:47:34.260Z,196.67
2018-01-10T23:50:02.163Z,291.33
2018-01-10T23:52:30.062Z,206.53
2018-01-10T23:54:58.103Z,169.40
2018-01-10T23:57:25.950Z,218.13
2018-01-10T23:59:54.756Z,202.17
